createdAt,value
2024-02-07T00:02:00.660Z,49.33
2024-02-07T00:04:27.342Z,56.42
2024-02-07T00:06:54.175Z,49.17
2024-02-07T00:09:20.721Z,55.42
2024-02-07T00:11:48.168Z,66.35
2024-02-07T00:14:14.811Z,67.13
2024-02-07T00:16:41.485Z,79.63
2024-02-07T00:19:08.228Z,64.10
2024-02-07T00:21:35.083Z,64.00
2024-02-07T00:24:01.651Z,69.07
2024-02-07T00:26:28.163Z,60.05
2024-02-07T00:28:54.833Z,62.90
2024-02-07T00:31:22.486Z,65.60
2024-02-07T00:33:49.139Z,65.68
2024-02-07T00:36:15.788Z,72.38
2024-02-07T00:38:42.286Z,81.20
2024-02-07T00:41:18.819Z,77.07
2024-02-07T00:43:45.432Z,84.78
2024-02-07T00:46:12.567Z,62.80
2024-02-07T00:48:41.055Z,63.58
2024-02-07T00:51:09.686Z,60.85
2024-02-07T00:53:36.268Z,63.75
2024-02-07T00:56:03.964Z,72.38
2024-02-07T00:58:30.717Z,64.53
2024-02-07T01:00:57.652Z,58.78
2024-02-07T01:03:25.231Z,56.55
2024-02-07T01:05:51.816Z,62.55
2024-02-07T01:08:18.662Z,57.42
2024-02-07T01:10:45.672Z,57.35
2024-02-07T01:13:12.771Z,57.58
2024-02-07T01:15:39.302Z,62.25
2024-02-07T01:18:06.023Z,53.50
2024-02-07T01:20:32.753Z,62.60
2024-02-07T01:22:59.781Z,60.58
2024-02-07T01:25:26.826Z,61.65
2024-02-07T01:27:55.348Z,52.83
2024-02-07T01:30:21.905Z,54.47
2024-02-07T01:32:48.659Z,62.95
2024-02-07T01:35:15.280Z,56.53
2024-02-07T01:37:42.034Z,55.33
2024-02-07T01:40:11.154Z,51.97
2024-02-07T01:42:38.084Z,55.20
2024-02-07T01:45:19.957Z,53.35
2024-02-07T01:47:46.683Z,51.08
2024-02-07T01:50:16.270Z,55.58
2024-02-07T01:52:46.092Z,52.45
2024-02-07T01:55:13.387Z,50.85
2024-02-07T01:57:40.618Z,41.40
2024-02-07T02:00:11.443Z,50.35
2024-02-07T02:02:39.908Z,38.20
2024-02-07T02:05:06.958Z,56.85
2024-02-07T02:07:33.876Z,61.03
2024-02-07T02:10:00.571Z,64.03
2024-02-07T02:12:27.832Z,51.25
2024-02-07T02:14:54.464Z,58.28
2024-02-07T02:17:21.415Z,63.25
2024-02-07T02:19:50.308Z,62.53
2024-02-07T02:22:37.628Z,57.15
2024-02-07T02:25:13.433Z,68.25
2024-02-07T02:27:47.222Z,58.33
2024-02-07T02:30:21.135Z,57.90
2024-02-07T02:32:49.644Z,51.58
2024-02-07T02:35:19.938Z,50.72
2024-02-07T02:37:47.317Z,51.00
2024-02-07T02:40:14.108Z,49.22
2024-02-07T02:42:40.930Z,49.60
2024-02-07T02:45:08.196Z,49.47
2024-02-07T02:47:34.820Z,43.03
2024-02-07T02:50:02.398Z,38.50
2024-02-07T02:52:30.304Z,39.33
2024-02-07T02:54:58.042Z,46.63
2024-02-07T02:57:24.987Z,52.58
2024-02-07T02:59:52.156Z,43.90
2024-02-07T03:02:21.601Z,42.17
2024-02-07T03:04:53.717Z,40.08
2024-02-07T03:07:55.387Z,39.53
2024-02-07T03:10:25.215Z,34.70
2024-02-07T03:12:54.550Z,39.35
2024-02-07T03:15:22.255Z,37.97
2024-02-07T03:17:49.535Z,47.92
2024-02-07T03:20:16.380Z,42.70
2024-02-07T03:22:43.034Z,48.92
2024-02-07T03:25:15.956Z,50.17
2024-02-07T03:27:42.519Z,51.90
2024-02-07T03:30:09.315Z,52.20
2024-02-07T03:32:36.417Z,47.50
2024-02-07T03:35:03.537Z,48.28
2024-02-07T03:37:30.142Z,43.38
2024-02-07T03:39:56.766Z,41.35
2024-02-07T03:42:23.251Z,41.55
2024-02-07T03:44:59.386Z,41.88
2024-02-07T03:47:26.263Z,46.35
2024-02-07T03:49:53.322Z,38.25
2024-02-07T03:52:20.410Z,41.25
2024-02-07T03:54:52.983Z,34.67
2024-02-07T03:57:22.445Z,35.42
2024-02-07T03:59:49.422Z,35.10
2024-02-07T04:02:25.477Z,29.10
2024-02-07T04:04:52.865Z,37.75
2024-02-07T04:07:20.198Z,28.33
2024-02-07T04:09:46.877Z,33.05
2024-02-07T04:12:14.124Z,30.85
2024-02-07T04:14:44.118Z,25.17
2024-02-07T04:17:29.566Z,29.80
2024-02-07T04:20:14.470Z,28.75
2024-02-07T04:22:59.507Z,31.25
2024-02-07T04:25:48.275Z,30.30
2024-02-07T04:28:33.574Z,28.38
2024-02-07T04:31:18.765Z,26.98
2024-02-07T04:34:03.876Z,32.35
2024-02-07T04:36:48.821Z,29.15
2024-02-07T04:39:33.725Z,33.20
2024-02-07T04:42:19.336Z,32.53
2024-02-07T04:45:04.459Z,28.23
2024-02-07T04:47:49.716Z,27.42
2024-02-07T04:50:34.675Z,30.17
2024-02-07T04:53:19.982Z,29.15
2024-02-07T04:56:05.143Z,33.25
2024-02-07T04:58:50.226Z,30.45
2024-02-07T05:01:35.550Z,26.58
2024-02-07T05:04:20.564Z,27.80
2024-02-07T05:07:05.767Z,26.35
2024-02-07T05:09:50.640Z,30.05
2024-02-07T05:12:35.659Z,25.30
2024-02-07T05:15:02.149Z,26.60
2024-02-07T05:17:28.766Z,25.63
2024-02-07T05:19:55.344Z,24.73
2024-02-07T05:22:26.059Z,25.50
2024-02-07T05:24:53.563Z,27.30
2024-02-07T05:27:20.102Z,20.73
2024-02-07T05:29:46.675Z,23.90
2024-02-07T05:32:13.535Z,26.40
2024-02-07T05:34:40.274Z,22.83
2024-02-07T05:37:07.021Z,18.77
2024-02-07T05:39:36.278Z,21.83
2024-02-07T05:42:03.006Z,20.38
2024-02-07T05:44:29.694Z,23.58
2024-02-07T05:46:56.269Z,20.45
2024-02-07T05:49:23.041Z,21.73
2024-02-07T05:52:01.711Z,23.10
2024-02-07T05:54:29.499Z,17.85
2024-02-07T05:56:56.025Z,20.35
2024-02-07T05:59:22.602Z,22.63
2024-02-07T06:01:49.167Z,25.15
2024-02-07T06:04:18.119Z,21.05
2024-02-07T06:06:47.194Z,21.67
2024-02-07T06:09:14.268Z,39.17
2024-02-07T06:11:43.796Z,29.40
2024-02-07T06:14:12.055Z,25.08
2024-02-07T06:16:45.030Z,23.88
2024-02-07T06:19:13.309Z,23.75
2024-02-07T06:21:40.066Z,20.85
2024-02-07T06:24:06.829Z,26.60
2024-02-07T06:26:33.332Z,25.13
2024-02-07T06:28:59.966Z,28.75
2024-02-07T06:31:26.698Z,30.27
2024-02-07T06:34:02.503Z,27.50
2024-02-07T06:36:29.134Z,27.05
2024-02-07T06:38:55.790Z,27.35
2024-02-07T06:41:22.431Z,28.25
2024-02-07T06:43:48.998Z,25.38
2024-02-07T06:46:15.663Z,35.17
2024-02-07T06:48:42.265Z,29.15
2024-02-07T06:51:08.765Z,26.70
2024-02-07T06:53:35.460Z,32.92
2024-02-07T06:56:02.080Z,25.50
2024-02-07T06:58:31.911Z,32.63
2024-02-07T07:00:59.772Z,31.83
2024-02-07T07:03:31.306Z,31.00
2024-02-07T07:05:58.824Z,32.10
2024-02-07T07:08:25.608Z,43.30
2024-02-07T07:10:52.353Z,29.88
2024-02-07T07:13:19.326Z,28.98
2024-02-07T07:15:45.893Z,27.73
2024-02-07T07:18:12.637Z,36.45
2024-02-07T07:20:39.266Z,30.95
2024-02-07T07:23:14.752Z,31.70
2024-02-07T07:25:43.019Z,28.40
2024-02-07T07:28:09.753Z,31.77
2024-02-07T07:30:36.424Z,29.17
2024-02-07T07:33:04.265Z,31.45
2024-02-07T07:35:31.191Z,36.55
2024-02-07T07:37:58.295Z,34.38
2024-02-07T07:40:25.503Z,34.67
2024-02-07T07:42:52.064Z,33.50
2024-02-07T07:45:18.637Z,35.78
2024-02-07T07:47:45.515Z,35.92
2024-02-07T07:50:12.346Z,32.50
2024-02-07T07:52:40.072Z,31.98
2024-02-07T07:55:06.705Z,29.85
2024-02-07T07:57:33.209Z,27.17
2024-02-07T08:00:01.186Z,36.85
2024-02-07T08:02:28.104Z,33.45
2024-02-07T08:04:54.919Z,34.22
2024-02-07T08:07:21.729Z,31.52
2024-02-07T08:09:48.543Z,28.65
2024-02-07T08:12:16.171Z,32.95
2024-02-07T08:14:42.850Z,26.58
2024-02-07T08:17:09.474Z,26.98
2024-02-07T08:19:36.108Z,23.42
2024-02-07T08:22:02.798Z,20.02
2024-02-07T08:24:29.338Z,20.30
2024-02-07T08:26:55.926Z,26.52
2024-02-07T08:29:22.478Z,19.20
2024-02-07T08:31:49.153Z,25.13
2024-02-07T08:34:16.376Z,21.65
2024-02-07T08:36:43.582Z,20.25
2024-02-07T08:39:10.174Z,22.58
2024-02-07T08:41:37.015Z,16.63
2024-02-07T08:44:03.682Z,20.92
2024-02-07T08:46:30.368Z,22.75
2024-02-07T08:48:57.082Z,15.57
2024-02-07T08:51:23.826Z,20.33
2024-02-07T08:53:50.434Z,15.90
2024-02-07T08:56:17.065Z,19.95
2024-02-07T08:58:44.026Z,14.23
2024-02-07T09:01:10.670Z,11.65
2024-02-07T09:03:37.729Z,20.42
2024-02-07T09:06:04.852Z,17.40
2024-02-07T09:08:31.732Z,15.68
2024-02-07T09:11:00.085Z,23.92
2024-02-07T09:13:26.786Z,16.52
2024-02-07T09:15:55.479Z,18.02
2024-02-07T09:18:23.723Z,19.65
2024-02-07T09:20:50.478Z,13.10
2024-02-07T09:23:17.064Z,12.55
2024-02-07T09:28:10.757Z,14.45
2024-02-07T09:30:37.500Z,11.82
2024-02-07T09:33:04.275Z,8.55
2024-02-07T09:35:31.052Z,10.98
2024-02-07T09:37:57.759Z,11.55
2024-02-07T09:40:25.018Z,11.07
2024-02-07T09:42:52.040Z,11.15
2024-02-07T09:45:20.046Z,14.18
2024-02-07T09:47:55.022Z,14.82
2024-02-07T09:50:22.907Z,14.75
2024-02-07T09:52:50.427Z,17.17
2024-02-07T09:55:17.684Z,13.98
2024-02-07T09:57:44.330Z,10.35
2024-02-07T10:02:40.342Z,17.17
2024-02-07T10:07:39.678Z,11.55
2024-02-07T10:10:09.091Z,12.88
2024-02-07T10:12:36.460Z,13.77
2024-02-07T10:15:03.207Z,10.52
2024-02-07T10:17:29.728Z,7.72
2024-02-07T10:19:56.486Z,9.25
2024-02-07T10:22:23.154Z,15.30
2024-02-07T10:24:49.850Z,6.22
2024-02-07T10:27:22.892Z,9.55
2024-02-07T10:29:49.787Z,11.05
2024-02-07T10:32:17.419Z,11.52
2024-02-07T10:34:46.604Z,18.92
2024-02-07T10:37:13.275Z,7.97
2024-02-07T10:39:39.811Z,6.70
2024-02-07T10:42:10.420Z,6.93
2024-02-07T10:44:37.191Z,8.52
2024-02-07T10:47:04.252Z,13.98
2024-02-07T10:49:32.292Z,10.15
2024-02-07T10:51:58.926Z,7.93
2024-02-07T10:59:25.085Z,9.68
2024-02-07T11:01:52.221Z,21.45
2024-02-07T11:06:46.978Z,9.85
2024-02-07T11:09:14.187Z,20.13
2024-02-07T11:11:40.980Z,10.63
2024-02-07T11:14:11.423Z,8.57
2024-02-07T11:16:39.016Z,8.48
2024-02-07T11:19:05.583Z,12.55
2024-02-07T11:21:34.296Z,8.38
2024-02-07T11:24:01.696Z,11.68
2024-02-07T11:26:28.625Z,9.80
2024-02-07T11:28:56.990Z,12.07
2024-02-07T11:31:23.980Z,10.48
2024-02-07T11:33:53.915Z,13.00
2024-02-07T11:36:21.691Z,11.80
2024-02-07T11:38:49.420Z,14.40
2024-02-07T11:41:20.614Z,10.27
2024-02-07T11:46:20.870Z,14.25
2024-02-07T11:48:53.093Z,11.15
2024-02-07T11:53:50.164Z,14.45
2024-02-07T11:58:51.246Z,10.85
2024-02-07T12:01:18.072Z,9.02
2024-02-07T12:03:44.853Z,10.57
2024-02-07T12:06:12.457Z,10.73
2024-02-07T12:08:39.686Z,8.10
2024-02-07T12:11:10.556Z,9.25
2024-02-07T12:13:38.178Z,15.25
2024-02-07T12:16:05.439Z,27.13
2024-02-07T12:18:32.404Z,21.58
2024-02-07T12:21:05.195Z,14.27
2024-02-07T12:23:32.451Z,17.08
2024-02-07T12:25:59.919Z,10.00
2024-02-07T12:28:26.976Z,10.05
2024-02-07T12:30:56.860Z,11.30
2024-02-07T12:33:23.768Z,11.70
2024-02-07T12:35:50.338Z,12.38
2024-02-07T12:38:17.631Z,12.05
2024-02-07T12:40:46.746Z,11.27
2024-02-07T12:43:13.349Z,8.55
2024-02-07T12:45:40.480Z,13.32
2024-02-07T12:48:07.340Z,14.07
2024-02-07T12:50:34.046Z,13.30
2024-02-07T12:53:00.757Z,11.43
2024-02-07T12:55:27.479Z,13.00
2024-02-07T12:58:01.114Z,9.23
2024-02-07T13:00:27.695Z,12.13
2024-02-07T13:02:54.265Z,12.25
2024-02-07T13:05:21.558Z,13.65
2024-02-07T13:07:49.720Z,16.27
2024-02-07T13:10:16.405Z,10.50
2024-02-07T13:12:43.116Z,16.55
2024-02-07T13:15:15.176Z,20.05
2024-02-07T13:17:41.794Z,26.05
2024-02-07T13:20:08.828Z,21.20
2024-02-07T13:22:35.552Z,13.18
2024-02-07T13:25:08.609Z,13.63
2024-02-07T13:27:35.150Z,19.73
2024-02-07T13:30:01.704Z,23.80
2024-02-07T13:32:28.317Z,27.85
2024-02-07T13:34:54.879Z,15.15
2024-02-07T13:37:21.464Z,16.88
2024-02-07T13:39:48.030Z,12.68
2024-02-07T13:42:14.582Z,13.93
2024-02-07T13:44:41.421Z,10.70
2024-02-07T13:47:09.076Z,15.95
2024-02-07T13:49:35.928Z,12.13
2024-02-07T13:52:04.296Z,10.13
2024-02-07T13:54:30.999Z,17.17
2024-02-07T13:56:57.638Z,14.02
2024-02-07T13:59:24.206Z,20.27
2024-02-07T14:01:50.935Z,17.98
2024-02-07T14:04:17.639Z,16.23
2024-02-07T14:06:44.268Z,17.20
2024-02-07T14:09:10.810Z,14.32
2024-02-07T14:11:42.956Z,19.65
2024-02-07T14:14:09.793Z,14.15
2024-02-07T14:19:04.649Z,10.80
2024-02-07T14:21:31.238Z,17.67
2024-02-07T14:23:57.791Z,11.98
2024-02-07T14:26:24.359Z,14.75
2024-02-07T14:33:44.487Z,17.88
2024-02-07T14:38:37.877Z,15.30
2024-02-07T14:41:04.566Z,16.60
2024-02-07T14:43:31.294Z,12.30
2024-02-07T14:45:57.965Z,14.00
2024-02-07T14:48:24.853Z,12.70
2024-02-07T14:50:51.613Z,11.60
2024-02-07T14:53:18.250Z,11.07
2024-02-07T14:55:45.338Z,11.80
2024-02-07T14:58:11.984Z,17.95
2024-02-07T15:00:39.817Z,15.43
2024-02-07T15:03:09.464Z,9.35
2024-02-07T15:05:36.117Z,10.50
2024-02-07T15:08:03.134Z,13.45
2024-02-07T15:10:29.851Z,18.13
2024-02-07T15:12:56.379Z,13.68
2024-02-07T15:15:22.936Z,16.40
2024-02-07T15:17:50.529Z,14.77
2024-02-07T15:20:17.450Z,21.42
2024-02-07T15:22:44.067Z,20.10
2024-02-07T15:25:10.895Z,18.95
2024-02-07T15:30:07.804Z,18.02
2024-02-07T15:32:34.333Z,25.40
2024-02-07T15:35:00.927Z,24.58
2024-02-07T15:37:27.477Z,23.65
2024-02-07T15:39:54.008Z,25.95
2024-02-07T15:42:20.486Z,33.90
2024-02-07T15:44:47.147Z,25.83
2024-02-07T15:47:17.547Z,28.75
2024-02-07T15:49:44.470Z,41.15
2024-02-07T15:52:11.031Z,31.58
2024-02-07T15:54:38.387Z,37.90
2024-02-07T15:57:05.566Z,40.10
2024-02-07T15:59:32.107Z,46.22
2024-02-07T16:01:59.037Z,66.07
2024-02-07T16:04:25.653Z,57.83
2024-02-07T16:06:52.480Z,75.90
2024-02-07T16:09:19.187Z,81.32
2024-02-07T16:11:46.759Z,95.80
2024-02-07T16:14:14.843Z,84.90
2024-02-07T16:16:44.233Z,74.32
2024-02-07T16:19:10.884Z,63.08
2024-02-07T16:21:37.378Z,61.95
2024-02-07T16:24:03.907Z,72.80
2024-02-07T16:26:30.389Z,64.88
2024-02-07T16:28:56.894Z,65.35
2024-02-07T16:31:23.578Z,56.92
2024-02-07T16:33:50.216Z,64.25
2024-02-07T16:36:16.873Z,55.35
2024-02-07T16:38:43.363Z,64.20
2024-02-07T16:41:10.836Z,50.00
2024-02-07T16:43:37.651Z,62.10
2024-02-07T16:46:04.272Z,49.58
2024-02-07T16:48:30.873Z,45.50
2024-02-07T16:50:57.468Z,45.38
2024-02-07T16:53:23.945Z,44.42
2024-02-07T16:55:51.901Z,64.28
2024-02-07T16:58:18.780Z,58.65
2024-02-07T17:00:47.453Z,56.88
2024-02-07T17:03:14.142Z,63.35
2024-02-07T17:05:40.833Z,93.68
2024-02-07T17:08:07.591Z,112.80
2024-02-07T17:10:35.099Z,117.50
2024-02-07T17:13:01.763Z,90.75
2024-02-07T17:15:28.290Z,106.63
2024-02-07T17:17:55.085Z,108.00
2024-02-07T17:20:21.764Z,105.63
2024-02-07T17:22:48.422Z,87.95
2024-02-07T17:25:15.152Z,94.15
2024-02-07T17:27:41.948Z,64.10
2024-02-07T17:30:14.442Z,80.35
2024-02-07T17:32:47.942Z,75.25
2024-02-07T17:35:14.886Z,67.07
2024-02-07T17:37:42.503Z,76.50
2024-02-07T17:40:09.310Z,73.07
2024-02-07T17:42:35.993Z,67.28
2024-02-07T17:45:02.622Z,67.88
2024-02-07T17:47:29.222Z,59.47
2024-02-07T17:49:55.805Z,54.20
2024-02-07T17:52:22.397Z,58.38
2024-02-07T17:54:49.472Z,66.13
2024-02-07T17:57:16.035Z,56.55
2024-02-07T17:59:42.720Z,34.13
2024-02-07T18:02:10.731Z,38.45
2024-02-07T18:04:40.050Z,45.30
2024-02-07T18:07:06.954Z,50.42
2024-02-07T18:09:33.647Z,36.40
2024-02-07T18:12:00.175Z,35.85
2024-02-07T18:14:26.841Z,40.28
2024-02-07T18:16:53.416Z,42.22
2024-02-07T18:19:20.199Z,51.55
2024-02-07T18:21:46.865Z,42.65
2024-02-07T18:24:17.871Z,37.80
2024-02-07T18:26:45.800Z,24.27
2024-02-07T18:29:12.668Z,28.95
2024-02-07T18:31:39.374Z,25.60
2024-02-07T18:34:06.067Z,31.55
2024-02-07T18:36:37.738Z,32.53
2024-02-07T18:39:05.067Z,29.77
2024-02-07T18:41:31.588Z,36.15
2024-02-07T18:43:58.308Z,42.20
2024-02-07T18:46:25.617Z,50.15
2024-02-07T18:48:52.423Z,56.13
2024-02-07T18:51:21.808Z,55.25
2024-02-07T18:53:48.389Z,60.78
2024-02-07T18:56:14.932Z,45.67
2024-02-07T18:58:41.550Z,49.13
2024-02-07T19:01:08.231Z,65.80
2024-02-07T19:03:40.328Z,65.93
2024-02-07T19:06:07.891Z,56.97
2024-02-07T19:08:36.008Z,75.80
2024-02-07T19:11:02.994Z,64.47
2024-02-07T19:13:29.743Z,59.65
2024-02-07T19:15:56.405Z,56.25
2024-02-07T19:18:23.209Z,52.58
2024-02-07T19:20:49.797Z,64.10
2024-02-07T19:23:16.358Z,84.85
2024-02-07T19:25:43.064Z,75.88
2024-02-07T19:28:09.622Z,67.95
2024-02-07T19:30:36.197Z,83.70
2024-02-07T19:33:02.803Z,71.40
2024-02-07T19:35:29.438Z,95.93
2024-02-07T19:37:56.139Z,104.85
2024-02-07T19:40:23.025Z,119.25
2024-02-07T19:42:49.700Z,87.32
2024-02-07T19:45:16.318Z,67.43
2024-02-07T19:47:43.397Z,65.85
2024-02-07T19:50:14.793Z,64.32
2024-02-07T19:52:42.765Z,60.53
2024-02-07T19:55:09.503Z,64.38
2024-02-07T19:57:36.024Z,55.88
2024-02-07T20:00:02.642Z,41.30
2024-02-07T20:02:29.371Z,53.17
2024-02-07T20:04:56.078Z,46.38
2024-02-07T20:07:22.692Z,46.15
2024-02-07T20:09:49.568Z,35.45
2024-02-07T20:12:16.144Z,41.67
2024-02-07T20:14:42.766Z,40.55
2024-02-07T20:17:09.624Z,40.20
2024-02-07T20:19:36.534Z,42.28
2024-02-07T20:22:04.405Z,35.72
2024-02-07T20:24:31.306Z,55.92
2024-02-07T20:26:57.895Z,156.68
2024-02-07T20:29:24.485Z,132.77
2024-02-07T20:31:52.231Z,110.00
2024-02-07T20:34:19.367Z,102.88
2024-02-07T20:36:46.246Z,97.18
2024-02-07T20:39:13.379Z,96.22
2024-02-07T20:41:40.885Z,91.97
2024-02-07T20:44:08.728Z,90.10
2024-02-07T20:46:35.837Z,62.10
2024-02-07T20:49:02.451Z,66.85
2024-02-07T20:51:29.080Z,67.75
2024-02-07T20:53:58.883Z,61.95
2024-02-07T20:56:26.277Z,69.97
2024-02-07T20:58:53.488Z,74.25
2024-02-07T21:01:20.489Z,73.40
2024-02-07T21:03:48.184Z,80.05
2024-02-07T21:06:21.412Z,72.22
2024-02-07T21:08:51.911Z,76.72
2024-02-07T21:11:21.304Z,66.90
2024-02-07T21:13:49.058Z,65.57
2024-02-07T21:16:15.700Z,67.50
2024-02-07T21:18:46.350Z,63.42
2024-02-07T21:21:16.848Z,57.67
2024-02-07T21:23:44.492Z,46.88
2024-02-07T21:26:12.108Z,56.95
2024-02-07T21:28:39.142Z,50.58
2024-02-07T21:31:06.207Z,57.55
2024-02-07T21:33:33.022Z,68.60
2024-02-07T21:36:04.526Z,55.70
2024-02-07T21:38:31.091Z,63.88
2024-02-07T21:40:57.837Z,59.85
2024-02-07T21:43:24.544Z,55.78
2024-02-07T21:45:51.406Z,50.55
2024-02-07T21:48:18.100Z,50.83
2024-02-07T21:50:44.650Z,55.10
2024-02-07T21:53:12.956Z,57.50
2024-02-07T21:55:39.632Z,56.10
2024-02-07T21:58:07.515Z,54.47
2024-02-07T22:00:34.511Z,48.80
2024-02-07T22:03:01.056Z,45.13
2024-02-07T22:05:27.760Z,43.85
2024-02-07T22:07:54.737Z,48.35
2024-02-07T22:10:21.782Z,47.22
2024-02-07T22:12:48.419Z,48.08
2024-02-07T22:15:15.085Z,52.03
2024-02-07T22:17:41.674Z,59.47
2024-02-07T22:20:09.816Z,59.42
2024-02-07T22:22:36.527Z,61.72
2024-02-07T22:25:06.826Z,57.47
2024-02-07T22:27:37.106Z,51.05
2024-02-07T22:30:05.293Z,56.78
2024-02-07T22:32:33.036Z,59.10
2024-02-07T22:35:01.197Z,74.57
2024-02-07T22:37:30.084Z,70.68
2024-02-07T22:39:58.047Z,86.57
2024-02-07T22:42:25.828Z,71.72
2024-02-07T22:44:54.718Z,75.80
2024-02-07T22:47:21.463Z,72.10
2024-02-07T22:49:49.178Z,63.20
2024-02-07T22:52:18.447Z,65.35
2024-02-07T22:54:45.062Z,59.17
2024-02-07T22:57:11.616Z,48.72
2024-02-07T22:59:38.503Z,50.70
2024-02-07T23:02:05.244Z,54.90
2024-02-07T23:04:31.853Z,53.47
2024-02-07T23:07:05.556Z,43.35
2024-02-07T23:09:32.265Z,46.30
2024-02-07T23:11:58.847Z,46.08
2024-02-07T23:14:25.349Z,44.10
2024-02-07T23:16:52.022Z,46.15
2024-02-07T23:19:19.799Z,46.35
2024-02-07T23:21:48.409Z,49.30
2024-02-07T23:24:18.944Z,44.13
2024-02-07T23:26:46.061Z,49.13
2024-02-07T23:29:12.609Z,48.65
2024-02-07T23:31:39.464Z,51.67
2024-02-07T23:34:06.069Z,41.35
2024-02-07T23:36:32.670Z,45.17
2024-02-07T23:39:00.529Z,41.95
2024-02-07T23:41:28.153Z,42.13
2024-02-07T23:43:55.896Z,39.05
2024-02-07T23:46:25.995Z,38.92
2024-02-07T23:48:52.711Z,41.47
2024-02-07T23:51:19.456Z,44.17
2024-02-07T23:53:47.960Z,40.60
2024-02-07T23:56:14.593Z,38.63
2024-02-07T23:58:42.804Z,39.92
